createdAt,value
2023-05-08T00:00:59.247Z,8.00
2023-05-08T00:04:02.904Z,8.17
2023-05-08T00:07:06.147Z,9.77
2023-05-08T00:10:11.229Z,8.63
2023-05-08T00:13:15.954Z,8.40
2023-05-08T00:16:19.767Z,8.87
2023-05-08T00:19:22.906Z,9.20
2023-05-08T00:22:28.628Z,11.03
2023-05-08T00:25:32.060Z,8.67
2023-05-08T00:28:36.627Z,9.60
2023-05-08T00:31:39.760Z,10.83
2023-05-08T00:34:42.941Z,10.37
2023-05-08T00:37:47.193Z,10.63
2023-05-08T00:40:50.294Z,13.43
2023-05-08T00:43:54.699Z,12.43
2023-05-08T00:46:58.224Z,10.83
2023-05-08T00:50:02.282Z,11.47
2023-05-08T00:53:06.362Z,11.17
2023-05-08T00:56:13.747Z,10.93
2023-05-08T00:59:18.663Z,9.33
2023-05-08T01:02:21.889Z,10.73
2023-05-08T01:05:25.050Z,13.17
2023-05-08T01:08:28.124Z,12.57
2023-05-08T01:11:47.147Z,12.67
2023-05-08T01:15:10.694Z,11.77
2023-05-08T01:18:18.829Z,10.57
2023-05-08T01:21:33.312Z,11.70
2023-05-08T01:25:23.779Z,10.70
2023-05-08T01:29:12.995Z,9.23
2023-05-08T01:32:21.880Z,9.47
2023-05-08T01:35:32.948Z,10.83
2023-05-08T01:38:47.746Z,10.57
2023-05-08T01:42:01.004Z,10.00
2023-05-08T01:45:13.793Z,10.47
2023-05-08T01:48:25.643Z,10.40
2023-05-08T01:51:41.912Z,10.87
2023-05-08T01:54:53.858Z,11.10
2023-05-08T01:57:59.225Z,10.67
2023-05-08T02:01:03.524Z,12.60
2023-05-08T02:04:09.607Z,10.40
2023-05-08T02:07:13.815Z,10.37
2023-05-08T02:10:18.447Z,11.73
2023-05-08T02:13:23.604Z,9.73
2023-05-08T02:16:28.265Z,10.57
2023-05-08T02:19:33.837Z,10.60
2023-05-08T02:22:38.209Z,10.33
2023-05-08T02:25:42.548Z,10.00
2023-05-08T02:28:47.144Z,10.23
2023-05-08T02:31:51.588Z,10.40
2023-05-08T02:35:03.136Z,10.57
2023-05-08T02:38:10.774Z,10.63
2023-05-08T02:41:17.865Z,9.87
2023-05-08T02:44:21.138Z,9.80
2023-05-08T02:47:30.921Z,10.17
2023-05-08T02:50:43.060Z,10.97
2023-05-08T02:53:52.798Z,10.13
2023-05-08T02:57:01.322Z,10.57
2023-05-08T03:00:13.802Z,11.03
2023-05-08T03:03:24.275Z,10.40
2023-05-08T03:06:36.813Z,11.07
2023-05-08T03:09:46.819Z,10.60
2023-05-08T03:12:55.416Z,10.47
2023-05-08T03:16:03.140Z,10.57
2023-05-08T03:19:13.943Z,11.40
2023-05-08T03:22:21.461Z,11.57
2023-05-08T03:25:25.824Z,11.97
2023-05-08T03:28:30.581Z,11.03
2023-05-08T03:31:36.298Z,11.97
2023-05-08T03:34:42.229Z,11.93
2023-05-08T03:37:46.789Z,12.67
2023-05-08T03:40:50.697Z,11.17
2023-05-08T03:43:55.073Z,18.07
2023-05-08T03:46:59.454Z,11.87
2023-05-08T03:50:04.246Z,11.73
2023-05-08T03:53:08.832Z,10.93
2023-05-08T03:56:12.200Z,12.30
2023-05-08T03:59:24.275Z,13.30
2023-05-08T04:02:42.043Z,11.37
2023-05-08T04:05:57.897Z,12.03
2023-05-08T04:09:10.273Z,11.37
2023-05-08T04:12:19.264Z,13.00
2023-05-08T04:15:26.637Z,13.90
2023-05-08T04:18:30.669Z,11.90
2023-05-08T04:21:38.003Z,12.10
2023-05-08T04:24:46.638Z,13.90
2023-05-08T04:27:56.005Z,13.27
2023-05-08T04:31:00.514Z,14.50
2023-05-08T04:34:04.522Z,12.37
2023-05-08T04:37:08.504Z,13.43
2023-05-08T04:40:14.710Z,13.10
2023-05-08T04:43:19.042Z,13.10
2023-05-08T04:46:22.207Z,12.40
2023-05-08T04:49:25.380Z,12.10
2023-05-08T04:52:28.455Z,11.27
2023-05-08T04:55:33.283Z,12.27
2023-05-08T04:58:36.472Z,11.70
2023-05-08T05:01:40.124Z,12.67
2023-05-08T05:04:44.075Z,11.80
2023-05-08T05:07:47.458Z,11.00
2023-05-08T05:10:52.635Z,11.30
2023-05-08T05:13:55.762Z,13.30
2023-05-08T05:17:02.959Z,10.63
2023-05-08T05:20:08.911Z,10.70
2023-05-08T05:23:12.852Z,10.07
2023-05-08T05:26:17.670Z,10.53
2023-05-08T05:29:21.364Z,11.33
2023-05-08T05:32:24.855Z,10.60
2023-05-08T05:35:28.250Z,11.43
2023-05-08T05:38:33.188Z,10.40
2023-05-08T05:41:38.256Z,9.33
2023-05-08T05:44:41.744Z,8.80
2023-05-08T05:47:47.634Z,8.80
2023-05-08T05:50:50.921Z,8.53
2023-05-08T05:53:54.378Z,8.80
2023-05-08T05:57:00.030Z,8.83
2023-05-08T06:00:03.470Z,8.60
2023-05-08T06:03:11.178Z,10.40
2023-05-08T06:25:15.123Z,6.07
2023-05-08T06:35:42.916Z,5.97
2023-05-08T06:38:51.988Z,6.50
2023-05-08T06:41:57.362Z,6.00
2023-05-08T06:45:17.109Z,6.77
2023-05-08T06:48:28.983Z,6.30
2023-05-08T06:51:32.896Z,6.53
2023-05-08T06:54:38.423Z,6.33
2023-05-08T06:57:44.469Z,5.73
2023-05-08T07:00:56.386Z,6.63
2023-05-08T07:04:01.328Z,6.37
2023-05-08T07:07:06.798Z,5.90
2023-05-08T07:10:16.846Z,5.43
2023-05-08T07:13:24.469Z,5.40
2023-05-08T07:16:32.042Z,5.97
2023-05-08T07:19:38.904Z,6.10
2023-05-08T07:22:50.283Z,4.77
2023-05-08T07:25:57.091Z,5.73
2023-05-08T07:29:00.339Z,5.30
2023-05-08T07:32:10.377Z,5.50
2023-05-08T07:35:20.488Z,7.30
2023-05-08T07:38:28.612Z,5.60
2023-05-08T07:41:37.127Z,5.63
2023-05-08T07:44:54.833Z,5.37
2023-05-08T07:48:09.910Z,5.87
2023-05-08T07:51:31.768Z,5.40
2023-05-08T07:54:41.820Z,6.40
2023-05-08T07:57:56.472Z,6.57
2023-05-08T08:01:03.547Z,7.13
2023-05-08T08:04:09.867Z,5.20
2023-05-08T08:07:18.003Z,5.97
2023-05-08T08:10:24.463Z,5.00
2023-05-08T08:13:32.766Z,4.33
2023-05-08T08:16:36.222Z,4.03
2023-05-08T08:20:00.321Z,5.30
2023-05-08T08:23:06.529Z,5.43
2023-05-08T08:26:14.942Z,5.10
2023-05-08T08:29:30.701Z,4.87
2023-05-08T08:32:39.846Z,4.00
2023-05-08T08:35:57.150Z,6.07
2023-05-08T08:39:00.807Z,7.07
2023-05-08T08:42:07.966Z,5.10
2023-05-08T08:45:12.660Z,4.80
2023-05-08T08:48:18.920Z,4.23
2023-05-08T08:51:29.351Z,6.07
2023-05-08T08:54:41.367Z,4.33
2023-05-08T08:58:22.774Z,9.77
2023-05-08T09:01:37.284Z,6.90
2023-05-08T09:04:58.546Z,5.17
2023-05-08T09:08:12.861Z,4.50
2023-05-08T09:11:19.242Z,6.53
2023-05-08T09:14:28.790Z,4.33
2023-05-08T09:17:52.531Z,8.67
2023-05-08T09:21:45.309Z,8.07
2023-05-08T09:25:01.301Z,5.87
2023-05-08T09:28:20.100Z,8.10
2023-05-08T09:31:53.153Z,4.50
2023-05-08T09:35:01.005Z,5.03
2023-05-08T09:38:43.368Z,6.22
2023-05-08T09:42:15.231Z,6.82
2023-05-08T09:45:35.514Z,5.75
2023-05-08T09:48:41.086Z,4.22
2023-05-08T09:51:54.198Z,6.07
2023-05-08T09:55:02.196Z,4.15
2023-05-08T09:58:16.012Z,3.90
2023-05-08T10:01:40.656Z,4.32
2023-05-08T10:04:52.298Z,4.22
2023-05-08T10:08:04.056Z,3.90
2023-05-08T10:11:20.790Z,3.72
2023-05-08T10:14:33.259Z,5.05
2023-05-08T10:17:52.903Z,3.60
2023-05-08T10:21:04.355Z,9.10
2023-05-08T10:24:26.204Z,3.88
2023-05-08T10:27:42.450Z,3.88
2023-05-08T10:30:57.251Z,3.60
2023-05-08T10:34:05.150Z,4.30
2023-05-08T10:37:36.109Z,4.28
2023-05-08T10:41:05.987Z,3.92
2023-05-08T10:44:19.954Z,8.95
2023-05-08T10:47:34.196Z,5.45
2023-05-08T10:50:56.587Z,4.25
2023-05-08T10:54:10.013Z,5.65
2023-05-08T10:57:30.253Z,5.10
2023-05-08T11:01:07.264Z,4.03
2023-05-08T11:04:23.145Z,6.13
2023-05-08T11:08:12.159Z,2.85
2023-05-08T11:12:09.450Z,7.03
2023-05-08T11:15:14.942Z,4.63
2023-05-08T11:18:19.804Z,4.25
2023-05-08T11:22:18.412Z,5.68
2023-05-08T11:29:32.155Z,5.63
2023-05-08T11:36:47.838Z,5.00
2023-05-08T11:39:52.068Z,3.28
2023-05-08T11:43:17.945Z,4.20
2023-05-08T11:46:44.066Z,4.78
2023-05-08T11:49:51.441Z,4.70
2023-05-08T11:53:30.679Z,3.38
2023-05-08T11:56:36.989Z,4.95
2023-05-08T12:01:06.880Z,4.18
2023-05-08T12:05:44.255Z,6.95
2023-05-08T12:14:22.004Z,3.53
2023-05-08T12:17:52.386Z,5.10
2023-05-08T12:21:30.719Z,3.17
2023-05-08T12:25:16.425Z,3.20
2023-05-08T12:31:51.433Z,4.47
2023-05-08T12:35:02.073Z,3.50
2023-05-08T12:38:25.812Z,3.90
2023-05-08T12:41:56.192Z,4.80
2023-05-08T12:45:03.968Z,5.43
2023-05-08T12:48:10.511Z,3.40
2023-05-08T12:51:44.213Z,7.75
2023-05-08T12:54:54.131Z,4.05
2023-05-08T12:58:14.271Z,3.25
2023-05-08T14:05:30.064Z,4.82
2023-05-08T14:08:35.248Z,3.70
2023-05-08T14:11:40.614Z,5.28
2023-05-08T14:14:43.823Z,4.78
2023-05-08T14:17:46.952Z,2.67
2023-05-08T14:20:57.115Z,8.30
2023-05-08T14:24:07.226Z,4.88
2023-05-08T14:27:10.428Z,6.18
2023-05-08T14:30:16.666Z,3.10
2023-05-08T14:33:20.099Z,3.50
2023-05-08T14:36:24.787Z,5.05
2023-05-08T14:39:29.699Z,6.28
2023-05-08T14:42:39.301Z,2.90
2023-05-08T14:45:47.318Z,3.45
2023-05-08T14:48:50.876Z,3.90
2023-05-08T14:51:57.426Z,6.47
2023-05-08T14:55:03.707Z,3.20
2023-05-08T14:58:09.802Z,3.90
2023-05-08T15:01:13.159Z,3.58
2023-05-08T15:04:19.627Z,4.25
2023-05-08T15:07:30.444Z,5.28
2023-05-08T15:10:33.716Z,3.40
2023-05-08T15:13:36.845Z,3.70
2023-05-08T15:16:45.020Z,3.83
2023-05-08T15:19:56.972Z,6.10
2023-05-08T15:27:04.990Z,5.90
2023-05-08T15:30:15.535Z,3.83
2023-05-08T15:33:24.893Z,6.72
2023-05-08T15:36:31.460Z,2.97
2023-05-08T15:39:39.872Z,4.07
2023-05-08T15:42:43.008Z,3.13
2023-05-08T15:45:50.521Z,4.35
2023-05-08T15:49:08.455Z,3.08
2023-05-08T15:52:11.793Z,7.45
2023-05-08T15:55:19.260Z,3.28
2023-05-08T15:58:23.222Z,5.38
2023-05-08T16:01:26.405Z,3.95
2023-05-08T16:04:32.707Z,4.60
2023-05-08T16:07:40.102Z,4.03
2023-05-08T16:10:48.059Z,5.70
2023-05-08T16:13:54.289Z,5.43
2023-05-08T16:16:57.481Z,4.15
2023-05-08T16:20:01.687Z,3.72
2023-05-08T16:23:07.064Z,4.97
2023-05-08T16:26:15.481Z,4.20
2023-05-08T16:29:18.680Z,7.25
2023-05-08T16:32:23.696Z,6.70
2023-05-08T16:35:26.950Z,4.13
2023-05-08T16:38:30.014Z,3.97
2023-05-08T16:41:39.344Z,4.25
2023-05-08T16:44:42.687Z,6.03
2023-05-08T16:47:46.168Z,3.40
2023-05-08T16:50:49.258Z,4.20
2023-05-08T16:53:52.528Z,4.53
2023-05-08T16:56:58.140Z,4.50
2023-05-08T17:00:07.482Z,3.60
2023-05-08T17:03:10.596Z,4.78
2023-05-08T17:06:13.646Z,6.30
2023-05-08T17:09:18.379Z,4.47
2023-05-08T17:12:22.654Z,3.80
2023-05-08T17:15:25.664Z,5.93
2023-05-08T17:18:28.605Z,3.80
2023-05-08T17:21:32.137Z,3.92
2023-05-08T17:24:37.185Z,5.10
2023-05-08T17:27:42.024Z,5.40
2023-05-08T17:30:46.383Z,5.70
2023-05-08T17:33:49.524Z,5.07
2023-05-08T17:36:54.475Z,5.63
2023-05-08T17:39:58.486Z,3.92
2023-05-08T17:43:05.612Z,9.70
2023-05-08T17:46:09.226Z,4.57
2023-05-08T17:49:13.005Z,4.55
2023-05-08T17:52:16.209Z,7.75
2023-05-08T17:55:20.082Z,5.35
2023-05-08T17:58:25.118Z,5.35
2023-05-08T18:01:29.394Z,8.98
2023-05-08T18:04:32.585Z,5.72
2023-05-08T18:07:40.648Z,4.10
2023-05-08T18:10:43.821Z,4.75
2023-05-08T18:13:48.487Z,9.48
2023-05-08T18:16:51.504Z,5.05
2023-05-08T18:19:54.533Z,4.30
2023-05-08T18:22:57.597Z,5.10
2023-05-08T18:26:00.640Z,5.82
2023-05-08T18:29:06.244Z,7.30
2023-05-08T18:32:11.951Z,4.03
2023-05-08T18:35:14.974Z,4.43
2023-05-08T18:38:18.471Z,9.57
2023-05-08T18:41:21.503Z,6.95
2023-05-08T18:44:25.827Z,6.95
2023-05-08T18:47:28.857Z,6.70
2023-05-08T18:50:31.883Z,4.70
2023-05-08T18:53:38.452Z,6.10
2023-05-08T18:56:41.696Z,6.75
2023-05-08T18:59:46.056Z,4.37
2023-05-08T19:02:49.326Z,4.67
2023-05-08T19:05:52.568Z,4.83
2023-05-08T19:08:55.701Z,4.90
2023-05-08T19:11:58.788Z,8.70
2023-05-08T19:15:03.203Z,4.63
2023-05-08T19:18:06.924Z,5.20
2023-05-08T19:21:10.099Z,4.00
2023-05-08T19:24:16.173Z,5.83
2023-05-08T19:27:19.692Z,5.63
2023-05-08T19:30:24.075Z,6.47
2023-05-08T19:33:28.516Z,6.60
2023-05-08T19:36:35.506Z,5.37
2023-05-08T19:39:39.985Z,5.60
2023-05-08T19:42:43.453Z,4.70
2023-05-08T19:45:47.802Z,6.70
2023-05-08T19:48:50.854Z,4.77
2023-05-08T19:51:54.432Z,4.83
2023-05-08T19:54:58.493Z,5.43
2023-05-08T19:58:05.698Z,8.67
2023-05-08T20:01:10.244Z,6.60
2023-05-08T20:04:13.364Z,7.33
2023-05-08T20:07:17.213Z,5.33
2023-05-08T20:10:20.235Z,5.17
2023-05-08T20:13:23.259Z,5.30
2023-05-08T20:16:27.742Z,5.00
2023-05-08T20:19:30.750Z,7.73
2023-05-08T20:22:35.787Z,5.53
2023-05-08T20:25:38.797Z,8.57
2023-05-08T20:28:43.804Z,5.10
2023-05-08T20:31:48.128Z,6.30
2023-05-08T20:34:52.824Z,5.43
2023-05-08T20:37:55.899Z,6.30
2023-05-08T20:41:01.051Z,4.60
2023-05-08T20:44:04.591Z,5.57
2023-05-08T20:47:08.968Z,5.03
2023-05-08T20:50:12.304Z,8.20
2023-05-08T20:53:15.499Z,7.27
2023-05-08T20:56:19.206Z,6.33
2023-05-08T20:59:23.174Z,5.10
2023-05-08T21:02:27.575Z,5.47
2023-05-08T21:05:31.091Z,7.43
2023-05-08T21:08:35.167Z,12.87
2023-05-08T21:11:38.377Z,4.63
2023-05-08T21:14:43.822Z,7.47
2023-05-08T21:17:48.276Z,9.27
2023-05-08T21:20:51.304Z,9.17
2023-05-08T21:23:54.360Z,5.37
2023-05-08T21:26:59.449Z,5.07
2023-05-08T21:30:04.512Z,5.23
2023-05-08T21:33:13.654Z,7.97
2023-05-08T21:36:16.846Z,5.47
2023-05-08T21:39:19.869Z,6.20
2023-05-08T21:42:22.930Z,8.03
2023-05-08T21:45:25.980Z,6.30
2023-05-08T21:48:30.263Z,5.53
2023-05-08T21:51:33.328Z,7.80
2023-05-08T21:54:36.431Z,5.87
2023-05-08T21:57:39.569Z,5.57
2023-05-08T22:00:42.644Z,5.33
2023-05-08T22:03:47.160Z,6.93
2023-05-08T22:06:50.254Z,6.90
2023-05-08T22:09:53.260Z,6.70
2023-05-08T22:12:56.380Z,5.80
2023-05-08T22:15:59.670Z,7.97
2023-05-08T22:19:03.995Z,6.40
2023-05-08T22:22:07.342Z,6.63
2023-05-08T22:25:10.799Z,6.00
2023-05-08T22:28:13.953Z,6.13
2023-05-08T22:31:17.016Z,7.20
2023-05-08T22:34:21.373Z,6.03
2023-05-08T22:37:24.574Z,5.90
2023-05-08T22:40:28.148Z,7.83
2023-05-08T22:43:32.359Z,6.00
2023-05-08T22:46:35.924Z,7.50
2023-05-08T22:49:41.806Z,7.13
2023-05-08T22:52:44.888Z,7.00
2023-05-08T22:55:47.844Z,6.83
2023-05-08T22:58:50.812Z,7.57
2023-05-08T23:01:53.905Z,6.13
2023-05-08T23:04:58.411Z,6.53
2023-05-08T23:08:02.404Z,8.37
2023-05-08T23:11:07.329Z,6.33
2023-05-08T23:14:10.343Z,7.80
2023-05-08T23:17:14.046Z,6.90
2023-05-08T23:20:18.836Z,8.20
2023-05-08T23:23:22.061Z,7.80
2023-05-08T23:26:25.131Z,8.50
2023-05-08T23:29:28.788Z,8.90
2023-05-08T23:32:31.899Z,8.40
2023-05-08T23:35:36.214Z,8.77
2023-05-08T23:38:39.181Z,7.60
2023-05-08T23:41:42.120Z,8.27
2023-05-08T23:44:45.079Z,7.20
2023-05-08T23:47:49.336Z,6.73
2023-05-08T23:50:54.043Z,11.10
2023-05-08T23:53:57.135Z,6.50
2023-05-08T23:57:00.181Z,6.50
